createdAt,value
2022-09-26T00:01:16.607Z,3.45
2022-09-26T00:04:23.693Z,4.72
2022-09-26T00:07:26.846Z,4.95
2022-09-26T00:10:28.968Z,3.35
2022-09-26T00:13:31.817Z,3.60
2022-09-26T00:16:34.037Z,3.90
2022-09-26T00:19:36.119Z,6.38
2022-09-26T00:22:38.186Z,4.68
2022-09-26T00:25:50.880Z,4.70
2022-09-26T00:28:53.162Z,3.05
2022-09-26T00:31:55.178Z,4.72
2022-09-26T00:34:57.222Z,5.18
2022-09-26T00:37:59.260Z,3.78
2022-09-26T00:41:01.472Z,3.53
2022-09-26T00:44:03.623Z,3.67
2022-09-26T00:47:06.424Z,5.43
2022-09-26T00:50:35.284Z,4.10
2022-09-26T00:53:43.991Z,6.28
2022-09-26T00:56:49.176Z,4.65
2022-09-26T00:59:56.282Z,8.63
2022-09-26T01:02:58.362Z,4.47
2022-09-26T01:06:00.399Z,6.35
2022-09-26T01:09:08.773Z,5.93
2022-09-26T01:12:11.026Z,4.38
2022-09-26T01:15:13.846Z,7.72
2022-09-26T01:18:15.912Z,7.90
2022-09-26T01:21:44.804Z,8.85
2022-09-26T01:25:24.249Z,6.53
2022-09-26T01:28:38.100Z,6.97
2022-09-26T01:32:22.738Z,6.13
2022-09-26T01:35:49.615Z,11.27
2022-09-26T01:39:09.887Z,6.45
2022-09-26T01:42:39.257Z,7.07
2022-09-26T01:46:03.536Z,8.55
2022-09-26T01:49:34.951Z,6.78
2022-09-26T01:52:50.862Z,6.78
2022-09-26T01:55:58.143Z,7.57
2022-09-26T01:59:05.022Z,7.80
2022-09-26T02:02:12.767Z,8.53
2022-09-26T02:05:33.389Z,8.70
2022-09-26T02:08:46.340Z,10.98
2022-09-26T02:11:49.641Z,10.77
2022-09-26T02:14:52.518Z,10.20
2022-09-26T02:18:15.421Z,11.35
2022-09-26T02:21:20.334Z,9.35
2022-09-26T02:24:25.372Z,10.63
2022-09-26T02:27:27.608Z,6.72
2022-09-26T02:30:29.797Z,10.77
2022-09-26T02:33:33.131Z,8.85
2022-09-26T02:36:36.615Z,10.02
2022-09-26T02:39:40.503Z,11.13
2022-09-26T02:42:55.151Z,9.90
2022-09-26T02:46:15.526Z,10.10
2022-09-26T02:49:54.974Z,14.48
2022-09-26T02:53:18.113Z,11.18
2022-09-26T02:56:50.088Z,9.98
2022-09-26T02:59:59.792Z,12.65
2022-09-26T03:03:08.022Z,14.63
2022-09-26T03:06:13.167Z,11.82
2022-09-26T03:09:15.667Z,11.52
2022-09-26T03:12:17.772Z,9.88
2022-09-26T03:15:20.199Z,15.82
2022-09-26T03:18:29.655Z,12.65
2022-09-26T03:21:36.143Z,14.98
2022-09-26T03:24:42.241Z,15.55
2022-09-26T03:27:44.379Z,15.07
2022-09-26T03:30:46.719Z,13.68
2022-09-26T03:34:06.395Z,16.38
2022-09-26T03:37:08.814Z,13.55
2022-09-26T03:40:12.958Z,15.80
2022-09-26T03:43:46.167Z,12.98
2022-09-26T03:46:49.671Z,12.10
2022-09-26T03:49:51.830Z,12.13
2022-09-26T03:52:54.036Z,12.85
2022-09-26T03:56:13.042Z,12.15
2022-09-26T03:59:15.360Z,11.55
2022-09-26T04:02:18.404Z,14.07
2022-09-26T04:05:24.170Z,16.52
2022-09-26T04:08:26.316Z,18.88
2022-09-26T04:11:28.562Z,14.82
2022-09-26T04:14:31.667Z,15.23
2022-09-26T04:17:35.071Z,18.60
2022-09-26T04:20:38.340Z,16.00
2022-09-26T04:23:40.975Z,12.00
2022-09-26T04:26:44.234Z,16.45
2022-09-26T04:29:46.515Z,10.10
2022-09-26T04:33:05.179Z,16.75
2022-09-26T04:36:10.562Z,14.18
2022-09-26T04:39:13.468Z,16.67
2022-09-26T04:42:15.733Z,13.43
2022-09-26T04:45:18.473Z,13.90
2022-09-26T04:48:21.712Z,14.75
2022-09-26T04:51:44.595Z,11.90
2022-09-26T04:54:46.795Z,11.30
2022-09-26T04:57:51.826Z,11.20
2022-09-26T05:00:56.661Z,13.27
2022-09-26T05:04:10.049Z,11.90
2022-09-26T05:07:14.278Z,14.65
2022-09-26T05:10:16.447Z,12.07
2022-09-26T05:13:26.748Z,13.40
2022-09-26T05:16:30.127Z,15.00
2022-09-26T05:19:35.284Z,10.18
2022-09-26T05:23:42.177Z,9.73
2022-09-26T05:26:51.509Z,9.63
2022-09-26T05:29:55.866Z,9.55
2022-09-26T05:32:58.708Z,15.25
2022-09-26T05:36:00.884Z,11.27
2022-09-26T05:39:05.090Z,8.88
2022-09-26T05:42:07.565Z,9.93
2022-09-26T05:45:10.803Z,11.00
2022-09-26T05:48:13.687Z,7.63
2022-09-26T05:51:17.493Z,12.20
2022-09-26T05:54:19.857Z,11.23
2022-09-26T05:57:21.945Z,12.13
2022-09-26T06:03:34.623Z,13.10
2022-09-26T06:06:51.312Z,12.90
2022-09-26T06:09:53.425Z,9.50
2022-09-26T06:13:07.945Z,9.90
2022-09-26T06:16:28.587Z,9.43
2022-09-26T06:19:30.814Z,9.63
2022-09-26T06:22:42.845Z,9.52
2022-09-26T06:25:46.384Z,13.38
2022-09-26T06:28:50.052Z,9.20
2022-09-26T06:31:52.322Z,7.80
2022-09-26T06:35:21.441Z,6.07
2022-09-26T06:38:44.883Z,10.77
2022-09-26T06:41:51.627Z,8.95
2022-09-26T06:45:09.586Z,9.93
2022-09-26T06:48:30.322Z,7.78
2022-09-26T06:51:55.251Z,7.68
2022-09-26T06:54:57.373Z,6.45
2022-09-26T06:57:59.888Z,12.65
2022-09-26T07:01:06.623Z,7.20
2022-09-26T07:04:49.595Z,9.32
2022-09-26T07:07:57.705Z,8.63
2022-09-26T07:11:16.129Z,8.68
2022-09-26T07:14:24.338Z,10.68
2022-09-26T07:17:30.899Z,9.10
2022-09-26T07:20:46.579Z,10.73
2022-09-26T07:24:08.633Z,6.97
2022-09-26T07:27:11.391Z,7.38
2022-09-26T07:30:13.831Z,7.63
2022-09-26T07:33:26.350Z,8.45
2022-09-26T07:36:31.687Z,6.72
2022-09-26T07:39:34.316Z,9.73
2022-09-26T07:42:38.717Z,7.47
2022-09-26T07:45:59.461Z,10.75
2022-09-26T07:49:20.271Z,5.53
2022-09-26T07:56:12.167Z,8.13
2022-09-26T07:59:54.258Z,6.82
2022-09-26T08:03:17.198Z,4.38
2022-09-26T08:06:20.931Z,6.05
2022-09-26T08:09:23.477Z,9.70
2022-09-26T08:12:44.148Z,7.45
2022-09-26T08:16:04.470Z,5.72
2022-09-26T08:19:08.338Z,7.25
2022-09-26T08:22:11.301Z,5.00
2022-09-26T08:25:13.562Z,6.72
2022-09-26T08:28:36.887Z,7.30
2022-09-26T08:31:40.219Z,6.25
2022-09-26T08:34:43.713Z,5.05
2022-09-26T08:38:15.250Z,5.47
2022-09-26T08:41:32.644Z,8.07
2022-09-26T08:45:40.008Z,4.47
2022-09-26T08:49:24.115Z,4.40
2022-09-26T08:52:41.370Z,6.63
2022-09-26T08:55:45.291Z,4.57
2022-09-26T08:58:52.150Z,7.25
2022-09-26T09:02:00.699Z,5.40
2022-09-26T09:05:19.438Z,3.80
2022-09-26T09:08:35.378Z,3.08
2022-09-26T09:12:24.846Z,4.95
2022-09-26T09:16:32.122Z,3.08
2022-09-26T09:20:15.144Z,3.70
2022-09-26T09:23:53.003Z,3.63
2022-09-26T09:31:03.278Z,3.78
2022-09-26T09:34:41.240Z,2.72
2022-09-26T09:38:23.606Z,5.05
2022-09-26T09:41:50.256Z,1.85
2022-09-26T09:45:09.811Z,2.30
2022-09-26T09:48:15.154Z,2.88
2022-09-26T09:51:41.816Z,2.83
2022-09-26T09:54:59.576Z,3.65
2022-09-26T09:58:24.293Z,1.85
2022-09-26T10:01:35.971Z,3.10
2022-09-26T10:04:54.910Z,1.95
2022-09-26T10:07:58.361Z,3.55
2022-09-26T10:11:39.490Z,4.15
2022-09-26T10:15:19.743Z,2.13
2022-09-26T10:19:03.502Z,3.50
2022-09-26T10:22:25.027Z,3.78
2022-09-26T10:25:27.503Z,2.00
2022-09-26T10:28:44.970Z,3.78
2022-09-26T10:31:49.278Z,3.88
2022-09-26T10:38:24.771Z,3.60
2022-09-26T10:41:40.111Z,2.92
2022-09-26T10:44:43.095Z,5.07
2022-09-26T10:47:59.338Z,2.90
2022-09-26T10:51:42.858Z,1.65
2022-09-26T10:55:16.978Z,2.92
2022-09-26T10:58:27.676Z,4.00
2022-09-26T11:01:32.474Z,1.90
2022-09-26T11:04:54.188Z,4.00
2022-09-26T11:08:15.214Z,3.35
2022-09-26T11:11:28.050Z,1.52
2022-09-26T11:14:34.474Z,3.90
2022-09-26T11:17:49.355Z,1.92
2022-09-26T11:20:52.150Z,2.28
2022-09-26T11:24:22.982Z,2.03
2022-09-26T11:27:25.184Z,2.30
2022-09-26T11:30:27.936Z,1.52
2022-09-26T11:33:36.196Z,2.13
2022-09-26T11:37:34.661Z,2.35
2022-09-26T11:41:03.754Z,1.77
2022-09-26T11:48:51.560Z,1.83
2022-09-26T11:52:55.468Z,1.75
2022-09-26T11:56:18.897Z,2.53
2022-09-26T11:59:50.419Z,2.75
2022-09-26T12:03:07.465Z,3.33
2022-09-26T12:06:25.817Z,2.50
2022-09-26T12:09:56.238Z,3.03
2022-09-26T12:13:03.331Z,4.15
2022-09-26T12:16:37.342Z,3.33
2022-09-26T12:20:15.942Z,2.70
2022-09-26T12:23:37.885Z,4.45
2022-09-26T12:26:57.402Z,4.13
2022-09-26T12:30:14.355Z,1.88
2022-09-26T12:33:53.380Z,3.47
2022-09-26T12:37:09.821Z,2.42
2022-09-26T12:40:36.287Z,2.83
2022-09-26T12:44:28.527Z,3.20
2022-09-26T12:48:09.334Z,3.50
2022-09-26T12:51:49.050Z,1.85
2022-09-26T12:55:24.344Z,2.15
2022-09-26T12:59:07.562Z,4.72
2022-09-26T13:02:33.232Z,4.45
2022-09-26T13:06:05.063Z,3.63
2022-09-26T13:09:41.265Z,3.85
2022-09-26T13:13:47.995Z,2.70
2022-09-26T13:17:10.263Z,3.42
2022-09-26T13:20:43.737Z,2.45
2022-09-26T13:23:58.711Z,3.40
2022-09-26T13:27:17.943Z,3.28
2022-09-26T13:30:24.414Z,2.67
2022-09-26T13:34:04.063Z,3.75
2022-09-26T13:37:17.537Z,3.60
2022-09-26T13:41:07.143Z,4.93
2022-09-26T13:44:29.598Z,2.92
2022-09-26T13:48:03.891Z,2.05
2022-09-26T13:51:21.121Z,2.67
2022-09-26T13:54:44.179Z,2.70
2022-09-26T13:58:03.880Z,4.38
2022-09-26T14:01:25.711Z,2.35
2022-09-26T14:04:36.934Z,2.55
2022-09-26T14:07:57.501Z,4.15
2022-09-26T14:11:11.936Z,2.45
2022-09-26T14:14:17.956Z,3.65
2022-09-26T14:17:44.542Z,3.58
2022-09-26T14:21:14.790Z,4.45
2022-09-26T14:24:36.506Z,3.63
2022-09-26T14:27:39.455Z,3.53
2022-09-26T14:30:41.545Z,3.25
2022-09-26T14:33:44.240Z,2.80
2022-09-26T14:36:46.715Z,2.05
2022-09-26T14:39:51.175Z,1.70
2022-09-26T14:42:57.735Z,3.38
2022-09-26T14:46:14.432Z,2.80
2022-09-26T14:49:26.432Z,2.47
2022-09-26T14:52:28.615Z,6.07
2022-09-26T14:55:30.814Z,3.58
2022-09-26T14:58:54.636Z,2.42
2022-09-26T15:02:17.666Z,3.85
2022-09-26T15:05:23.535Z,2.65
2022-09-26T15:08:32.029Z,4.07
2022-09-26T15:11:44.167Z,5.95
2022-09-26T15:15:34.514Z,2.47
2022-09-26T15:18:40.365Z,3.58
2022-09-26T15:21:45.254Z,2.63
2022-09-26T15:24:47.425Z,2.78
2022-09-26T15:27:54.196Z,2.40
2022-09-26T15:31:25.311Z,4.35
2022-09-26T15:34:46.860Z,1.88
2022-09-26T15:37:48.967Z,2.05
2022-09-26T15:41:01.478Z,2.28
2022-09-26T15:44:06.827Z,1.60
2022-09-26T15:47:34.213Z,2.38
2022-09-26T15:50:42.833Z,1.10
2022-09-26T15:53:53.572Z,2.92
2022-09-26T15:57:01.543Z,2.30
2022-09-26T16:00:04.523Z,4.82
2022-09-26T16:03:41.130Z,3.45
2022-09-26T16:06:52.849Z,2.72
2022-09-26T16:09:56.097Z,2.28
2022-09-26T16:12:59.631Z,2.47
2022-09-26T16:16:06.095Z,2.33
2022-09-26T16:19:30.884Z,3.85
2022-09-26T16:23:01.748Z,4.07
2022-09-26T16:26:30.161Z,3.42
2022-09-26T16:29:35.035Z,2.92
2022-09-26T16:32:37.421Z,2.80
2022-09-26T16:35:47.444Z,4.78
2022-09-26T16:38:58.014Z,3.65
2022-09-26T16:42:12.406Z,2.97
2022-09-26T16:45:14.518Z,2.60
2022-09-26T16:48:51.076Z,3.88
2022-09-26T16:52:34.471Z,3.15
2022-09-26T16:55:37.479Z,3.25
2022-09-26T16:58:44.332Z,1.70
2022-09-26T17:01:53.971Z,2.55
2022-09-26T17:04:56.264Z,2.80
2022-09-26T17:07:58.376Z,0.93
2022-09-26T17:11:02.566Z,1.95
2022-09-26T17:14:04.679Z,0.88
2022-09-26T17:17:08.169Z,1.42
2022-09-26T17:20:13.106Z,2.72
2022-09-26T17:23:38.280Z,1.98
2022-09-26T17:26:37.633Z,0.88
2022-09-26T17:29:43.639Z,0.88
2022-09-26T17:32:49.988Z,0.77
2022-09-26T17:35:52.634Z,1.58
2022-09-26T17:38:55.523Z,2.92
2022-09-26T17:41:59.946Z,1.83
2022-09-26T17:45:02.095Z,1.60
2022-09-26T17:48:24.285Z,1.67
2022-09-26T17:51:26.399Z,1.50
2022-09-26T17:54:42.566Z,0.93
2022-09-26T17:57:44.832Z,1.52
2022-09-26T18:00:49.238Z,1.33
2022-09-26T18:03:54.802Z,2.50
2022-09-26T18:07:01.165Z,1.80
2022-09-26T18:10:06.650Z,0.88
2022-09-26T18:13:13.483Z,2.55
2022-09-26T18:16:16.005Z,2.27
2022-09-26T18:19:20.895Z,2.22
2022-09-26T18:22:27.484Z,1.40
2022-09-26T18:25:29.560Z,0.98
2022-09-26T18:28:31.710Z,1.15
2022-09-26T18:31:38.672Z,1.25
2022-09-26T18:34:40.800Z,0.73
2022-09-26T18:37:43.581Z,1.75
2022-09-26T18:40:51.860Z,2.33
2022-09-26T18:43:55.653Z,1.70
2022-09-26T18:47:01.718Z,3.00
2022-09-26T18:50:05.691Z,1.90
2022-09-26T18:53:16.332Z,2.35
2022-09-26T18:56:36.831Z,2.15
2022-09-26T18:59:38.951Z,1.30
2022-09-26T19:02:41.343Z,2.22
2022-09-26T19:05:43.592Z,4.38
2022-09-26T19:08:47.555Z,1.88
2022-09-26T19:11:49.735Z,1.38
2022-09-26T19:14:51.988Z,2.03
2022-09-26T19:17:54.183Z,2.38
2022-09-26T19:20:56.324Z,1.80
2022-09-26T19:24:34.395Z,5.20
2022-09-26T19:27:46.533Z,2.40
2022-09-26T19:30:48.971Z,2.53
2022-09-26T19:33:51.261Z,2.00
2022-09-26T19:36:53.449Z,1.27
2022-09-26T19:39:57.755Z,1.58
2022-09-26T19:42:59.889Z,1.67
2022-09-26T19:46:06.129Z,1.23
2022-09-26T19:49:10.235Z,1.42
2022-09-26T19:52:16.943Z,1.30
2022-09-26T19:55:32.496Z,1.88
2022-09-26T19:58:34.696Z,1.40
2022-09-26T20:01:36.862Z,1.80
2022-09-26T20:04:39.000Z,2.08
2022-09-26T20:07:41.067Z,2.70
2022-09-26T20:10:43.371Z,1.92
2022-09-26T20:14:04.146Z,1.17
2022-09-26T20:17:17.885Z,1.95
2022-09-26T20:20:23.179Z,1.27
2022-09-26T20:23:26.373Z,1.17
2022-09-26T20:26:29.531Z,1.70
2022-09-26T20:29:51.543Z,3.45
2022-09-26T20:32:53.847Z,1.15
2022-09-26T20:36:05.300Z,1.48
2022-09-26T20:39:12.427Z,2.75
2022-09-26T20:42:16.965Z,1.48
2022-09-26T20:45:22.834Z,1.08
2022-09-26T20:48:26.235Z,1.42
2022-09-26T20:51:30.098Z,1.45
2022-09-26T20:54:32.829Z,1.40
2022-09-26T20:57:35.108Z,1.45
2022-09-26T21:00:38.854Z,2.00
2022-09-26T21:03:44.552Z,1.80
2022-09-26T21:06:46.871Z,2.38
2022-09-26T21:09:52.250Z,1.70
2022-09-26T21:12:54.643Z,2.83
2022-09-26T21:15:56.730Z,1.45
2022-09-26T21:18:58.854Z,3.30
2022-09-26T21:22:02.722Z,4.28
2022-09-26T21:25:32.535Z,3.80
2022-09-26T21:28:34.659Z,3.80
2022-09-26T21:31:36.984Z,3.83
2022-09-26T21:34:39.092Z,2.50
2022-09-26T21:37:42.619Z,4.30
2022-09-26T21:40:44.866Z,3.03
2022-09-26T21:43:55.067Z,4.45
2022-09-26T21:46:57.154Z,2.50
2022-09-26T21:49:59.369Z,4.40
2022-09-26T21:53:10.567Z,4.13
2022-09-26T21:56:19.712Z,3.13
2022-09-26T21:59:22.800Z,2.45
2022-09-26T22:02:25.903Z,2.40
2022-09-26T22:05:28.437Z,2.45
2022-09-26T22:08:31.301Z,1.88
2022-09-26T22:11:35.862Z,2.35
2022-09-26T22:14:37.890Z,2.72
2022-09-26T22:17:39.962Z,2.83
2022-09-26T22:20:42.009Z,2.55
2022-09-26T22:23:44.082Z,2.50
2022-09-26T22:26:46.146Z,3.95
2022-09-26T22:29:48.459Z,3.85
2022-09-26T22:32:50.738Z,3.25
2022-09-26T22:35:52.814Z,2.90
2022-09-26T22:38:54.917Z,2.13
2022-09-26T22:41:57.026Z,1.92
2022-09-26T22:44:59.104Z,4.63
2022-09-26T22:48:01.399Z,2.00
2022-09-26T22:51:03.862Z,1.73
2022-09-26T22:54:06.074Z,2.03
2022-09-26T22:57:08.220Z,1.80
2022-09-26T23:00:13.062Z,2.30
2022-09-26T23:03:15.188Z,1.88
2022-09-26T23:06:17.307Z,2.60
2022-09-26T23:09:19.369Z,2.00
2022-09-26T23:12:21.431Z,5.63
2022-09-26T23:15:23.496Z,4.47
2022-09-26T23:18:25.589Z,2.05
2022-09-26T23:21:27.745Z,4.60
2022-09-26T23:24:29.856Z,4.80
2022-09-26T23:27:31.975Z,4.43
2022-09-26T23:30:34.076Z,2.90
2022-09-26T23:33:37.779Z,2.53
2022-09-26T23:36:39.863Z,4.03
2022-09-26T23:39:41.940Z,5.47
2022-09-26T23:42:44.859Z,5.07
2022-09-26T23:45:46.976Z,5.78
2022-09-26T23:48:49.095Z,4.45
2022-09-26T23:51:52.187Z,5.78
2022-09-26T23:54:54.240Z,4.15
2022-09-26T23:57:58.359Z,5.80
